sensor_id;sensor_type;location;lat;lon;timestamp;pressure;altitude;pressure_sealevel;temperature
23208;BMP180;11773;52.570;13.052;2023-07-31T00:01:34;100829.00;;;23.00
23208;BMP180;11773;52.570;13.052;2023-07-31T00:04:04;100829.00;;;23.00
23208;BMP180;11773;52.570;13.052;2023-07-31T00:06:33;100833.00;;;23.00
23208;BMP180;11773;52.570;13.052;2023-07-31T00:09:03;100823.00;;;23.00
23208;BMP180;11773;52.570;13.052;2023-07-31T00:11:33;100824.00;;;23.00
23208;BMP180;11773;52.570;13.052;2023-07-31T00:14:02;100817.00;;;23.00
23208;BMP180;11773;52.570;13.052;2023-07-31T00:16:32;100823.00;;;22.90
23208;BMP180;11773;52.570;13.052;2023-07-31T00:19:02;100802.00;;;22.90
23208;BMP180;11773;52.570;13.052;2023-07-31T00:21:31;100804.00;;;22.90
23208;BMP180;11773;52.570;13.052;2023-07-31T00:24:01;100811.00;;;22.90
23208;BMP180;11773;52.570;13.052;2023-07-31T00:26:30;100799.00;;;22.80
23208;BMP180;11773;52.570;13.052;2023-07-31T00:29:00;100817.00;;;22.80
23208;BMP180;11773;52.570;13.052;2023-07-31T00:31:29;100806.00;;;22.80
23208;BMP180;11773;52.570;13.052;2023-07-31T00:33:59;100801.00;;;22.80
23208;BMP180;11773;52.570;13.052;2023-07-31T00:36:29;100801.00;;;22.70
23208;BMP180;11773;52.570;13.052;2023-07-31T00:38:58;100807.00;;;22.70
23208;BMP180;11773;52.570;13.052;2023-07-31T00:41:28;100798.00;;;22.70
23208;BMP180;11773;52.570;13.052;2023-07-31T00:43:57;100793.00;;;22.70
23208;BMP180;11773;52.570;13.052;2023-07-31T00:46:27;100797.00;;;22.70
23208;BMP180;11773;52.570;13.052;2023-07-31T00:48:57;100792.00;;;22.70
23208;BMP180;11773;52.570;13.052;2023-07-31T00:51:27;100799.00;;;22.70
23208;BMP180;11773;52.570;13.052;2023-07-31T00:53:56;100795.00;;;22.70
23208;BMP180;11773;52.570;13.052;2023-07-31T00:56:28;100795.00;;;22.60
23208;BMP180;11773;52.570;13.052;2023-07-31T00:58:58;100784.00;;;22.60
23208;BMP180;11773;52.570;13.052;2023-07-31T01:01:28;100783.00;;;22.60
23208;BMP180;11773;52.570;13.052;2023-07-31T01:03:58;100782.00;;;22.60
23208;BMP180;11773;52.570;13.052;2023-07-31T01:06:48;100792.00;;;22.60
23208;BMP180;11773;52.570;13.052;2023-07-31T01:09:43;100794.00;;;22.60
23208;BMP180;11773;52.570;13.052;2023-07-31T01:12:16;100783.00;;;22.60
23208;BMP180;11773;52.570;13.052;2023-07-31T01:17:34;100792.00;;;22.60
23208;BMP180;11773;52.570;13.052;2023-07-31T01:20:11;100785.00;;;22.60
23208;BMP180;11773;52.570;13.052;2023-07-31T01:26:12;100784.00;;;22.60
23208;BMP180;11773;52.570;13.052;2023-07-31T01:28:55;100794.00;;;22.60
23208;BMP180;11773;52.570;13.052;2023-07-31T01:31:26;100785.00;;;22.60
23208;BMP180;11773;52.570;13.052;2023-07-31T01:34:02;100790.00;;;22.60
23208;BMP180;11773;52.570;13.052;2023-07-31T01:36:32;100781.00;;;22.60
23208;BMP180;11773;52.570;13.052;2023-07-31T01:39:02;100785.00;;;22.60
23208;BMP180;11773;52.570;13.052;2023-07-31T01:41:32;100774.00;;;22.60
23208;BMP180;11773;52.570;13.052;2023-07-31T01:44:02;100780.00;;;22.70
23208;BMP180;11773;52.570;13.052;2023-07-31T01:46:31;100776.00;;;22.60
23208;BMP180;11773;52.570;13.052;2023-07-31T01:49:01;100776.00;;;22.60
23208;BMP180;11773;52.570;13.052;2023-07-31T01:51:31;100775.00;;;22.70
23208;BMP180;11773;52.570;13.052;2023-07-31T01:54:03;100759.00;;;22.70
23208;BMP180;11773;52.570;13.052;2023-07-31T01:56:33;100779.00;;;22.70
23208;BMP180;11773;52.570;13.052;2023-07-31T01:59:03;100764.00;;;22.70
23208;BMP180;11773;52.570;13.052;2023-07-31T02:01:32;100753.00;;;22.70
23208;BMP180;11773;52.570;13.052;2023-07-31T02:04:02;100759.00;;;22.70
23208;BMP180;11773;52.570;13.052;2023-07-31T02:06:33;100753.00;;;22.70
23208;BMP180;11773;52.570;13.052;2023-07-31T02:09:03;100747.00;;;22.70
23208;BMP180;11773;52.570;13.052;2023-07-31T02:11:32;100738.00;;;22.70
23208;BMP180;11773;52.570;13.052;2023-07-31T02:14:02;100739.00;;;22.70
23208;BMP180;11773;52.570;13.052;2023-07-31T02:16:31;100736.00;;;22.70
23208;BMP180;11773;52.570;13.052;2023-07-31T02:19:01;100749.00;;;22.70
23208;BMP180;11773;52.570;13.052;2023-07-31T02:21:30;100735.00;;;22.70
23208;BMP180;11773;52.570;13.052;2023-07-31T02:24:00;100733.00;;;22.70
23208;BMP180;11773;52.570;13.052;2023-07-31T02:26:29;100741.00;;;22.70
23208;BMP180;11773;52.570;13.052;2023-07-31T02:28:59;100742.00;;;22.60
23208;BMP180;11773;52.570;13.052;2023-07-31T02:31:29;100733.00;;;22.60
23208;BMP180;11773;52.570;13.052;2023-07-31T02:33:58;100731.00;;;22.60
23208;BMP180;11773;52.570;13.052;2023-07-31T02:36:28;100730.00;;;22.60
23208;BMP180;11773;52.570;13.052;2023-07-31T02:38:58;100736.00;;;22.60
23208;BMP180;11773;52.570;13.052;2023-07-31T02:41:27;100714.00;;;22.60
23208;BMP180;11773;52.570;13.052;2023-07-31T02:43:57;100713.00;;;22.60
23208;BMP180;11773;52.570;13.052;2023-07-31T02:46:26;100720.00;;;22.60
23208;BMP180;11773;52.570;13.052;2023-07-31T02:48:56;100707.00;;;22.60
23208;BMP180;11773;52.570;13.052;2023-07-31T02:51:25;100708.00;;;22.50
23208;BMP180;11773;52.570;13.052;2023-07-31T02:53:55;100721.00;;;22.50
23208;BMP180;11773;52.570;13.052;2023-07-31T02:56:25;100716.00;;;22.50
23208;BMP180;11773;52.570;13.052;2023-07-31T02:58:54;100713.00;;;22.60
23208;BMP180;11773;52.570;13.052;2023-07-31T03:01:24;100722.00;;;22.50
23208;BMP180;11773;52.570;13.052;2023-07-31T03:03:53;100723.00;;;22.60
23208;BMP180;11773;52.570;13.052;2023-07-31T03:06:23;100723.00;;;22.60
23208;BMP180;11773;52.570;13.052;2023-07-31T03:08:52;100707.00;;;22.60
23208;BMP180;11773;52.570;13.052;2023-07-31T03:11:22;100698.00;;;22.60
23208;BMP180;11773;52.570;13.052;2023-07-31T03:13:52;100706.00;;;22.60
23208;BMP180;11773;52.570;13.052;2023-07-31T03:16:22;100706.00;;;22.60
23208;BMP180;11773;52.570;13.052;2023-07-31T03:18:52;100692.00;;;22.60
23208;BMP180;11773;52.570;13.052;2023-07-31T03:21:23;100705.00;;;22.60
23208;BMP180;11773;52.570;13.052;2023-07-31T03:23:52;100698.00;;;22.60
23208;BMP180;11773;52.570;13.052;2023-07-31T03:26:22;100686.00;;;22.60
23208;BMP180;11773;52.570;13.052;2023-07-31T03:28:51;100691.00;;;22.60
23208;BMP180;11773;52.570;13.052;2023-07-31T03:31:21;100679.00;;;22.60
23208;BMP180;11773;52.570;13.052;2023-07-31T03:33:51;100682.00;;;22.60
23208;BMP180;11773;52.570;13.052;2023-07-31T03:36:20;100682.00;;;22.60
23208;BMP180;11773;52.570;13.052;2023-07-31T03:38:51;100667.00;;;22.60
23208;BMP180;11773;52.570;13.052;2023-07-31T03:41:21;100664.00;;;22.60
23208;BMP180;11773;52.570;13.052;2023-07-31T03:43:51;100675.00;;;22.60
23208;BMP180;11773;52.570;13.052;2023-07-31T03:46:22;100669.00;;;22.60
23208;BMP180;11773;52.570;13.052;2023-07-31T03:48:51;100675.00;;;22.60
23208;BMP180;11773;52.570;13.052;2023-07-31T03:51:21;100659.00;;;22.60
23208;BMP180;11773;52.570;13.052;2023-07-31T03:53:50;100667.00;;;22.60
23208;BMP180;11773;52.570;13.052;2023-07-31T03:56:20;100664.00;;;22.60
23208;BMP180;11773;52.570;13.052;2023-07-31T03:58:49;100677.00;;;22.60
23208;BMP180;11773;52.570;13.052;2023-07-31T04:01:19;100662.00;;;22.60
23208;BMP180;11773;52.570;13.052;2023-07-31T04:03:49;100668.00;;;22.60
23208;BMP180;11773;52.570;13.052;2023-07-31T04:06:19;100655.00;;;22.60
23208;BMP180;11773;52.570;13.052;2023-07-31T04:08:48;100661.00;;;22.60
23208;BMP180;11773;52.570;13.052;2023-07-31T04:11:18;100652.00;;;22.60
23208;BMP180;11773;52.570;13.052;2023-07-31T04:13:47;100648.00;;;22.60
23208;BMP180;11773;52.570;13.052;2023-07-31T04:16:17;100651.00;;;22.60
23208;BMP180;11773;52.570;13.052;2023-07-31T04:18:46;100660.00;;;22.60
23208;BMP180;11773;52.570;13.052;2023-07-31T04:21:16;100650.00;;;22.60
23208;BMP180;11773;52.570;13.052;2023-07-31T04:23:46;100650.00;;;22.60
23208;BMP180;11773;52.570;13.052;2023-07-31T04:26:15;100646.00;;;22.60
23208;BMP180;11773;52.570;13.052;2023-07-31T04:28:45;100658.00;;;22.60
23208;BMP180;11773;52.570;13.052;2023-07-31T04:31:14;100651.00;;;22.60
23208;BMP180;11773;52.570;13.052;2023-07-31T04:33:44;100642.00;;;22.60
23208;BMP180;11773;52.570;13.052;2023-07-31T04:36:14;100635.00;;;22.60
23208;BMP180;11773;52.570;13.052;2023-07-31T04:38:43;100642.00;;;22.60
23208;BMP180;11773;52.570;13.052;2023-07-31T04:41:13;100648.00;;;22.70
23208;BMP180;11773;52.570;13.052;2023-07-31T04:43:43;100653.00;;;22.70
23208;BMP180;11773;52.570;13.052;2023-07-31T04:46:12;100642.00;;;22.70
23208;BMP180;11773;52.570;13.052;2023-07-31T04:48:42;100651.00;;;22.70
23208;BMP180;11773;52.570;13.052;2023-07-31T04:51:12;100643.00;;;22.70
23208;BMP180;11773;52.570;13.052;2023-07-31T04:53:42;100653.00;;;22.70
23208;BMP180;11773;52.570;13.052;2023-07-31T04:56:11;100643.00;;;22.70
23208;BMP180;11773;52.570;13.052;2023-07-31T04:58:42;100650.00;;;22.70
23208;BMP180;11773;52.570;13.052;2023-07-31T05:01:12;100648.00;;;22.70
23208;BMP180;11773;52.570;13.052;2023-07-31T05:03:41;100659.00;;;22.70
23208;BMP180;11773;52.570;13.052;2023-07-31T05:06:11;100642.00;;;22.70
23208;BMP180;11773;52.570;13.052;2023-07-31T05:08:41;100645.00;;;22.70
23208;BMP180;11773;52.570;13.052;2023-07-31T05:11:11;100639.00;;;22.80
23208;BMP180;11773;52.570;13.052;2023-07-31T05:13:41;100642.00;;;22.80
23208;BMP180;11773;52.570;13.052;2023-07-31T05:16:10;100631.00;;;22.80
23208;BMP180;11773;52.570;13.052;2023-07-31T05:18:40;100639.00;;;22.80
23208;BMP180;11773;52.570;13.052;2023-07-31T05:21:10;100632.00;;;22.80
23208;BMP180;11773;52.570;13.052;2023-07-31T05:23:39;100642.00;;;22.80
23208;BMP180;11773;52.570;13.052;2023-07-31T05:26:09;100631.00;;;22.80
23208;BMP180;11773;52.570;13.052;2023-07-31T05:28:39;100622.00;;;22.80
23208;BMP180;11773;52.570;13.052;2023-07-31T05:31:08;100627.00;;;22.90
23208;BMP180;11773;52.570;13.052;2023-07-31T05:33:38;100620.00;;;22.90
23208;BMP180;11773;52.570;13.052;2023-07-31T05:36:07;100618.00;;;22.90
23208;BMP180;11773;52.570;13.052;2023-07-31T05:38:37;100637.00;;;22.90
23208;BMP180;11773;52.570;13.052;2023-07-31T05:41:08;100621.00;;;22.90
23208;BMP180;11773;52.570;13.052;2023-07-31T05:43:38;100610.00;;;22.90
23208;BMP180;11773;52.570;13.052;2023-07-31T05:46:10;100628.00;;;22.90
23208;BMP180;11773;52.570;13.052;2023-07-31T05:48:40;100627.00;;;22.90
23208;BMP180;11773;52.570;13.052;2023-07-31T05:51:10;100618.00;;;22.90
23208;BMP180;11773;52.570;13.052;2023-07-31T05:53:40;100617.00;;;23.00
23208;BMP180;11773;52.570;13.052;2023-07-31T05:56:10;100610.00;;;23.00
23208;BMP180;11773;52.570;13.052;2023-07-31T05:58:39;100611.00;;;23.00
23208;BMP180;11773;52.570;13.052;2023-07-31T06:01:09;100610.00;;;22.90
23208;BMP180;11773;52.570;13.052;2023-07-31T06:03:38;100617.00;;;23.00
23208;BMP180;11773;52.570;13.052;2023-07-31T06:06:08;100611.00;;;23.00
23208;BMP180;11773;52.570;13.052;2023-07-31T06:08:38;100631.00;;;23.00
23208;BMP180;11773;52.570;13.052;2023-07-31T06:11:08;100626.00;;;23.00
23208;BMP180;11773;52.570;13.052;2023-07-31T06:13:37;100626.00;;;23.00
23208;BMP180;11773;52.570;13.052;2023-07-31T06:16:09;100612.00;;;23.00
23208;BMP180;11773;52.570;13.052;2023-07-31T06:18:39;100610.00;;;23.00
23208;BMP180;11773;52.570;13.052;2023-07-31T06:21:10;100613.00;;;22.90
23208;BMP180;11773;52.570;13.052;2023-07-31T06:23:40;100613.00;;;23.00
23208;BMP180;11773;52.570;13.052;2023-07-31T06:26:09;100618.00;;;23.00
23208;BMP180;11773;52.570;13.052;2023-07-31T06:28:39;100613.00;;;23.00
23208;BMP180;11773;52.570;13.052;2023-07-31T06:31:09;100602.00;;;23.00
23208;BMP180;11773;52.570;13.052;2023-07-31T06:33:39;100604.00;;;23.00
23208;BMP180;11773;52.570;13.052;2023-07-31T06:36:08;100609.00;;;23.00
23208;BMP180;11773;52.570;13.052;2023-07-31T06:38:38;100604.00;;;23.00
23208;BMP180;11773;52.570;13.052;2023-07-31T06:41:07;100608.00;;;23.10
23208;BMP180;11773;52.570;13.052;2023-07-31T06:43:38;100602.00;;;23.10
23208;BMP180;11773;52.570;13.052;2023-07-31T06:46:08;100621.00;;;23.10
23208;BMP180;11773;52.570;13.052;2023-07-31T06:48:39;100615.00;;;23.10
23208;BMP180;11773;52.570;13.052;2023-07-31T06:51:08;100610.00;;;23.20
23208;BMP180;11773;52.570;13.052;2023-07-31T06:53:38;100620.00;;;23.20
23208;BMP180;11773;52.570;13.052;2023-07-31T06:56:07;100604.00;;;23.20
23208;BMP180;11773;52.570;13.052;2023-07-31T06:58:37;100604.00;;;23.20
23208;BMP180;11773;52.570;13.052;2023-07-31T07:01:07;100613.00;;;23.20
23208;BMP180;11773;52.570;13.052;2023-07-31T07:03:37;100612.00;;;23.20
23208;BMP180;11773;52.570;13.052;2023-07-31T07:06:06;100595.00;;;23.20
23208;BMP180;11773;52.570;13.052;2023-07-31T07:08:36;100612.00;;;23.20
23208;BMP180;11773;52.570;13.052;2023-07-31T07:11:05;100614.00;;;23.30
23208;BMP180;11773;52.570;13.052;2023-07-31T07:13:35;100611.00;;;23.30
23208;BMP180;11773;52.570;13.052;2023-07-31T07:16:06;100604.00;;;23.30
23208;BMP180;11773;52.570;13.052;2023-07-31T07:18:36;100611.00;;;23.30
23208;BMP180;11773;52.570;13.052;2023-07-31T07:21:07;100612.00;;;23.30
23208;BMP180;11773;52.570;13.052;2023-07-31T07:23:37;100603.00;;;23.30
23208;BMP180;11773;52.570;13.052;2023-07-31T07:26:06;100600.00;;;23.40
23208;BMP180;11773;52.570;13.052;2023-07-31T07:28:36;100612.00;;;23.30
23208;BMP180;11773;52.570;13.052;2023-07-31T07:31:06;100612.00;;;23.40
23208;BMP180;11773;52.570;13.052;2023-07-31T07:33:35;100611.00;;;23.40
23208;BMP180;11773;52.570;13.052;2023-07-31T07:36:05;100599.00;;;23.40
23208;BMP180;11773;52.570;13.052;2023-07-31T07:38:36;100597.00;;;23.40
23208;BMP180;11773;52.570;13.052;2023-07-31T07:41:07;100596.00;;;23.40
23208;BMP180;11773;52.570;13.052;2023-07-31T07:43:37;100598.00;;;23.40
23208;BMP180;11773;52.570;13.052;2023-07-31T07:46:06;100590.00;;;23.40
23208;BMP180;11773;52.570;13.052;2023-07-31T07:48:36;100599.00;;;23.40
23208;BMP180;11773;52.570;13.052;2023-07-31T07:51:05;100592.00;;;23.40
23208;BMP180;11773;52.570;13.052;2023-07-31T07:53:35;100595.00;;;23.40
23208;BMP180;11773;52.570;13.052;2023-07-31T07:56:05;100589.00;;;23.40
23208;BMP180;11773;52.570;13.052;2023-07-31T07:58:34;100593.00;;;23.40
23208;BMP180;11773;52.570;13.052;2023-07-31T08:01:04;100577.00;;;23.50
23208;BMP180;11773;52.570;13.052;2023-07-31T08:03:34;100580.00;;;23.50
23208;BMP180;11773;52.570;13.052;2023-07-31T08:06:03;100579.00;;;23.40
23208;BMP180;11773;52.570;13.052;2023-07-31T08:08:33;100581.00;;;23.40
23208;BMP180;11773;52.570;13.052;2023-07-31T08:11:03;100589.00;;;23.40
23208;BMP180;11773;52.570;13.052;2023-07-31T08:13:33;100574.00;;;23.50
23208;BMP180;11773;52.570;13.052;2023-07-31T08:16:05;100562.00;;;23.50
23208;BMP180;11773;52.570;13.052;2023-07-31T08:18:34;100573.00;;;23.50
23208;BMP180;11773;52.570;13.052;2023-07-31T08:21:04;100577.00;;;23.50
23208;BMP180;11773;52.570;13.052;2023-07-31T08:23:34;100586.00;;;23.50
23208;BMP180;11773;52.570;13.052;2023-07-31T08:26:03;100578.00;;;23.50
23208;BMP180;11773;52.570;13.052;2023-07-31T08:28:33;100569.00;;;23.50
23208;BMP180;11773;52.570;13.052;2023-07-31T08:31:04;100567.00;;;23.60
23208;BMP180;11773;52.570;13.052;2023-07-31T08:33:34;100564.00;;;23.60
23208;BMP180;11773;52.570;13.052;2023-07-31T08:36:04;100579.00;;;23.60
23208;BMP180;11773;52.570;13.052;2023-07-31T08:38:33;100562.00;;;23.60
23208;BMP180;11773;52.570;13.052;2023-07-31T08:41:06;100566.00;;;23.70
23208;BMP180;11773;52.570;13.052;2023-07-31T08:43:36;100576.00;;;23.70
23208;BMP180;11773;52.570;13.052;2023-07-31T08:46:07;100571.00;;;23.80
23208;BMP180;11773;52.570;13.052;2023-07-31T08:48:38;100567.00;;;23.80
23208;BMP180;11773;52.570;13.052;2023-07-31T08:51:08;100573.00;;;23.80
23208;BMP180;11773;52.570;13.052;2023-07-31T08:53:37;100560.00;;;23.90
23208;BMP180;11773;52.570;13.052;2023-07-31T08:56:08;100558.00;;;23.90
23208;BMP180;11773;52.570;13.052;2023-07-31T08:58:39;100558.00;;;23.90
23208;BMP180;11773;52.570;13.052;2023-07-31T09:01:09;100567.00;;;23.90
23208;BMP180;11773;52.570;13.052;2023-07-31T09:03:40;100564.00;;;23.90
23208;BMP180;11773;52.570;13.052;2023-07-31T09:06:12;100568.00;;;23.90
23208;BMP180;11773;52.570;13.052;2023-07-31T09:08:42;100568.00;;;23.90
23208;BMP180;11773;52.570;13.052;2023-07-31T09:11:13;100570.00;;;23.90
23208;BMP180;11773;52.570;13.052;2023-07-31T09:13:44;100576.00;;;23.90
23208;BMP180;11773;52.570;13.052;2023-07-31T09:16:14;100567.00;;;23.90
23208;BMP180;11773;52.570;13.052;2023-07-31T09:18:56;100563.00;;;23.90
23208;BMP180;11773;52.570;13.052;2023-07-31T09:21:27;100562.00;;;23.80
23208;BMP180;11773;52.570;13.052;2023-07-31T09:23:57;100557.00;;;23.80
23208;BMP180;11773;52.570;13.052;2023-07-31T09:26:36;100573.00;;;23.80
23208;BMP180;11773;52.570;13.052;2023-07-31T09:29:18;100570.00;;;23.80
23208;BMP180;11773;52.570;13.052;2023-07-31T09:31:42;100556.00;;;23.80
23208;BMP180;11773;52.570;13.052;2023-07-31T09:34:12;100559.00;;;23.80
23208;BMP180;11773;52.570;13.052;2023-07-31T09:36:48;100548.00;;;23.80
23208;BMP180;11773;52.570;13.052;2023-07-31T09:39:19;100565.00;;;23.70
23208;BMP180;11773;52.570;13.052;2023-07-31T09:41:56;100541.00;;;23.70
23208;BMP180;11773;52.570;13.052;2023-07-31T09:44:39;100558.00;;;23.70
23208;BMP180;11773;52.570;13.052;2023-07-31T09:47:23;100563.00;;;23.70
23208;BMP180;11773;52.570;13.052;2023-07-31T09:49:54;100547.00;;;23.70
23208;BMP180;11773;52.570;13.052;2023-07-31T09:52:27;100555.00;;;23.70
23208;BMP180;11773;52.570;13.052;2023-07-31T09:54:56;100543.00;;;23.70
23208;BMP180;11773;52.570;13.052;2023-07-31T09:57:27;100545.00;;;23.70
23208;BMP180;11773;52.570;13.052;2023-07-31T09:59:57;100559.00;;;23.70
23208;BMP180;11773;52.570;13.052;2023-07-31T10:02:28;100537.00;;;23.70
23208;BMP180;11773;52.570;13.052;2023-07-31T10:05:02;100545.00;;;23.70
23208;BMP180;11773;52.570;13.052;2023-07-31T10:07:38;100538.00;;;23.70
23208;BMP180;11773;52.570;13.052;2023-07-31T10:10:09;100534.00;;;23.70
23208;BMP180;11773;52.570;13.052;2023-07-31T10:12:39;100533.00;;;23.70
23208;BMP180;11773;52.570;13.052;2023-07-31T10:15:10;100529.00;;;23.70
23208;BMP180;11773;52.570;13.052;2023-07-31T10:17:41;100528.00;;;23.70
23208;BMP180;11773;52.570;13.052;2023-07-31T10:20:11;100520.00;;;23.80
23208;BMP180;11773;52.570;13.052;2023-07-31T10:22:43;100520.00;;;23.80
23208;BMP180;11773;52.570;13.052;2023-07-31T10:25:16;100521.00;;;23.80
23208;BMP180;11773;52.570;13.052;2023-07-31T10:27:47;100530.00;;;23.90
23208;BMP180;11773;52.570;13.052;2023-07-31T10:30:20;100513.00;;;23.90
23208;BMP180;11773;52.570;13.052;2023-07-31T10:32:53;100513.00;;;23.90
23208;BMP180;11773;52.570;13.052;2023-07-31T10:35:23;100510.00;;;24.00
23208;BMP180;11773;52.570;13.052;2023-07-31T10:37:53;100505.00;;;24.10
23208;BMP180;11773;52.570;13.052;2023-07-31T10:40:27;100501.00;;;24.10
23208;BMP180;11773;52.570;13.052;2023-07-31T10:42:57;100498.00;;;24.20
23208;BMP180;11773;52.570;13.052;2023-07-31T10:45:36;100499.00;;;24.30
23208;BMP180;11773;52.570;13.052;2023-07-31T10:48:14;100490.00;;;24.30
23208;BMP180;11773;52.570;13.052;2023-07-31T10:50:56;100496.00;;;24.40
23208;BMP180;11773;52.570;13.052;2023-07-31T10:53:32;100482.00;;;24.50
23208;BMP180;11773;52.570;13.052;2023-07-31T10:56:11;100497.00;;;24.60
23208;BMP180;11773;52.570;13.052;2023-07-31T10:58:38;100494.00;;;24.70
23208;BMP180;11773;52.570;13.052;2023-07-31T11:01:07;100488.00;;;24.70
23208;BMP180;11773;52.570;13.052;2023-07-31T11:03:49;100476.00;;;24.80
23208;BMP180;11773;52.570;13.052;2023-07-31T11:06:21;100490.00;;;24.90
23208;BMP180;11773;52.570;13.052;2023-07-31T11:08:51;100470.00;;;24.90
23208;BMP180;11773;52.570;13.052;2023-07-31T11:11:21;100476.00;;;25.00
23208;BMP180;11773;52.570;13.052;2023-07-31T11:13:53;100479.00;;;25.00
23208;BMP180;11773;52.570;13.052;2023-07-31T11:16:24;100490.00;;;25.10
23208;BMP180;11773;52.570;13.052;2023-07-31T11:18:54;100485.00;;;25.10
23208;BMP180;11773;52.570;13.052;2023-07-31T11:21:25;100490.00;;;25.10
23208;BMP180;11773;52.570;13.052;2023-07-31T11:23:58;100490.00;;;25.20
23208;BMP180;11773;52.570;13.052;2023-07-31T11:26:28;100495.00;;;25.20
23208;BMP180;11773;52.570;13.052;2023-07-31T11:28:59;100489.00;;;25.20
23208;BMP180;11773;52.570;13.052;2023-07-31T11:31:29;100493.00;;;25.20
23208;BMP180;11773;52.570;13.052;2023-07-31T11:34:07;100481.00;;;25.20
23208;BMP180;11773;52.570;13.052;2023-07-31T11:36:37;100476.00;;;25.20
23208;BMP180;11773;52.570;13.052;2023-07-31T11:39:11;100478.00;;;25.30
23208;BMP180;11773;52.570;13.052;2023-07-31T11:41:43;100479.00;;;25.30
23208;BMP180;11773;52.570;13.052;2023-07-31T11:44:13;100489.00;;;25.30
23208;BMP180;11773;52.570;13.052;2023-07-31T11:46:44;100491.00;;;25.30
23208;BMP180;11773;52.570;13.052;2023-07-31T11:49:14;100483.00;;;25.30
23208;BMP180;11773;52.570;13.052;2023-07-31T11:51:44;100482.00;;;25.30
23208;BMP180;11773;52.570;13.052;2023-07-31T11:54:13;100478.00;;;25.30
23208;BMP180;11773;52.570;13.052;2023-07-31T11:56:45;100485.00;;;25.30
23208;BMP180;11773;52.570;13.052;2023-07-31T11:59:14;100475.00;;;25.30
23208;BMP180;11773;52.570;13.052;2023-07-31T12:01:44;100479.00;;;25.40
23208;BMP180;11773;52.570;13.052;2023-07-31T12:04:14;100478.00;;;25.40
23208;BMP180;11773;52.570;13.052;2023-07-31T12:06:45;100466.00;;;25.40
23208;BMP180;11773;52.570;13.052;2023-07-31T12:09:17;100460.00;;;25.40
23208;BMP180;11773;52.570;13.052;2023-07-31T12:11:47;100466.00;;;25.40
23208;BMP180;11773;52.570;13.052;2023-07-31T12:14:25;100471.00;;;25.40
23208;BMP180;11773;52.570;13.052;2023-07-31T12:17:00;100473.00;;;25.40
23208;BMP180;11773;52.570;13.052;2023-07-31T12:19:31;100480.00;;;25.40
23208;BMP180;11773;52.570;13.052;2023-07-31T12:22:01;100472.00;;;25.40
23208;BMP180;11773;52.570;13.052;2023-07-31T12:24:31;100462.00;;;25.40
23208;BMP180;11773;52.570;13.052;2023-07-31T12:27:11;100465.00;;;25.40
23208;BMP180;11773;52.570;13.052;2023-07-31T12:29:42;100472.00;;;25.40
23208;BMP180;11773;52.570;13.052;2023-07-31T12:32:39;100460.00;;;25.40
23208;BMP180;11773;52.570;13.052;2023-07-31T12:35:09;100467.00;;;25.40
23208;BMP180;11773;52.570;13.052;2023-07-31T12:37:39;100457.00;;;25.40
23208;BMP180;11773;52.570;13.052;2023-07-31T12:40:09;100451.00;;;25.40
23208;BMP180;11773;52.570;13.052;2023-07-31T12:42:40;100452.00;;;25.40
23208;BMP180;11773;52.570;13.052;2023-07-31T12:45:10;100446.00;;;25.40
23208;BMP180;11773;52.570;13.052;2023-07-31T12:47:39;100451.00;;;25.40
23208;BMP180;11773;52.570;13.052;2023-07-31T12:50:09;100451.00;;;25.40
23208;BMP180;11773;52.570;13.052;2023-07-31T12:52:39;100443.00;;;25.40
23208;BMP180;11773;52.570;13.052;2023-07-31T12:55:08;100444.00;;;25.40
23208;BMP180;11773;52.570;13.052;2023-07-31T12:57:40;100439.00;;;25.30
23208;BMP180;11773;52.570;13.052;2023-07-31T13:00:11;100439.00;;;25.30
23208;BMP180;11773;52.570;13.052;2023-07-31T13:02:41;100437.00;;;25.30
23208;BMP180;11773;52.570;13.052;2023-07-31T13:05:10;100436.00;;;25.30
23208;BMP180;11773;52.570;13.052;2023-07-31T13:07:42;100419.00;;;25.30
23208;BMP180;11773;52.570;13.052;2023-07-31T13:10:11;100430.00;;;25.30
23208;BMP180;11773;52.570;13.052;2023-07-31T13:12:41;100424.00;;;25.40
23208;BMP180;11773;52.570;13.052;2023-07-31T13:15:11;100408.00;;;25.40
23208;BMP180;11773;52.570;13.052;2023-07-31T13:17:41;100404.00;;;25.40
23208;BMP180;11773;52.570;13.052;2023-07-31T13:20:11;100399.00;;;25.40
23208;BMP180;11773;52.570;13.052;2023-07-31T13:22:41;100399.00;;;25.50
23208;BMP180;11773;52.570;13.052;2023-07-31T13:25:12;100400.00;;;25.50
23208;BMP180;11773;52.570;13.052;2023-07-31T13:27:42;100394.00;;;25.50
23208;BMP180;11773;52.570;13.052;2023-07-31T13:30:11;100394.00;;;25.60
23208;BMP180;11773;52.570;13.052;2023-07-31T13:32:41;100387.00;;;25.60
23208;BMP180;11773;52.570;13.052;2023-07-31T13:35:10;100389.00;;;25.70
23208;BMP180;11773;52.570;13.052;2023-07-31T13:37:40;100390.00;;;25.70
23208;BMP180;11773;52.570;13.052;2023-07-31T13:40:10;100383.00;;;25.70
23208;BMP180;11773;52.570;13.052;2023-07-31T13:42:40;100366.00;;;25.80
23208;BMP180;11773;52.570;13.052;2023-07-31T13:45:10;100379.00;;;25.90
23208;BMP180;11773;52.570;13.052;2023-07-31T13:47:39;100375.00;;;25.90
23208;BMP180;11773;52.570;13.052;2023-07-31T13:50:09;100370.00;;;25.90
23208;BMP180;11773;52.570;13.052;2023-07-31T13:52:39;100371.00;;;26.00
23208;BMP180;11773;52.570;13.052;2023-07-31T13:55:09;100366.00;;;26.00
23208;BMP180;11773;52.570;13.052;2023-07-31T13:57:38;100362.00;;;26.00
23208;BMP180;11773;52.570;13.052;2023-07-31T14:00:09;100360.00;;;26.00
23208;BMP180;11773;52.570;13.052;2023-07-31T14:02:38;100363.00;;;26.00
23208;BMP180;11773;52.570;13.052;2023-07-31T14:05:09;100357.00;;;26.00
23208;BMP180;11773;52.570;13.052;2023-07-31T14:07:38;100374.00;;;26.00
23208;BMP180;11773;52.570;13.052;2023-07-31T14:10:09;100356.00;;;26.00